Startpagina
METAR-TAF:

METAR-TAF

Vliegvelden :

Teheran, Iran

Teheran Mehrabad International Airport

breedte: 35-41N, lengte: 051-21E, hoogte: 1204 m

Actueel weer

Dit bericht is 38 minuten geleden gemaakt, om 11:30 UTC
Wind 4 kt uit het zuiden
Temperatuur 15°C
Vochtigheid 23%
Druk 1023 hPa
Zicht 10 km of meer
geen wolken onder 1500 m en geen cumulonimbus

METAR: OIII 191130Z 17004KT CAVOK 15/M06 Q1023 A3022 NOSIG

Tijdstip: 15:38 (12:08 UTC)

Verwachting

Dit bericht is 1 uur en het 8 minuten geleden gemaakt, om 11:00 UTC
Verwachting geldig van 19 om 12 UTC tot 20 om 18 UTC
Wind 8 kt uit het noordnoordoosten
Zicht: 4000 m
Weinig wolken op 3500 ft
Gebroken wolken op 10000 ft
Heiigheid
Tijdelijke
van 19 om 18 UTC tot 19 om 24 UTC
Weinig wolken op 3000 ft, Cumulonimbus.
Verspreide wolken op 3500 ft
Gebroken wolken op 9000 ft

TAF: OIII 191100Z 1912/2018 03004MPS 4000 HZ FEW035 BKN100 TEMPO 1918/1924 FEW030CB SCT035 BKN090

Waarnemingen en weersverwachtingen van meer dan 4000 vliegvelden (METAR en TAF).

De beschikbare stations zijn de gele en rode punten op de kaart.

Ga met uw muis naar het station om de naam te zien.

Klik dan om waarnemingen en weersverwachtingen te zien.

kaart wijzigen: klik op de groene knoppen met een zwart kruis om in te zoomen, op de groene knop met een streepje om uit te zoomen of op de groene pijlen voor aangrenzende kaarten.


METAR-TAF: